Terminal Aerodrome Forecast
Issued by NWS

Home | Current Version | Previous Version | Text Only | Print | Product List | Glossary On
Versions: 1 2 3 4 5 6 7 8 9 10 11 12 13 14 15 16 17 18 19 20 21 22 23 24
000
FTUS44 KLIX 211120
TAFHDC
TAF
KHDC 211120Z 2112/2212 VRB03KT P6SM SCT250
     FM211500 12008KT P6SM BKN250
     FM220300 12005KT P6SM OVC025
     FM220400 12005KT P6SM VCSH OVC015
     FM220900 13006KT P6SM VCSH OVC008=

USA.gov is the U.S. government's official web portal to all federal, state and local government web resources and services.